sensor_id;sensor_type;location;lat;lon;timestamp;temperature;humidity
13794;DHT22;31160;49.500;7.772;2023-03-20T00:01:58;7.90;99.90
13794;DHT22;31160;49.500;7.772;2023-03-20T00:04:25;7.90;99.90
13794;DHT22;31160;49.500;7.772;2023-03-20T00:06:52;7.90;99.90
13794;DHT22;31160;49.500;7.772;2023-03-20T00:09:18;7.90;99.90
13794;DHT22;31160;49.500;7.772;2023-03-20T00:11:50;8.00;99.90
13794;DHT22;31160;49.500;7.772;2023-03-20T00:14:22;8.00;99.90
13794;DHT22;31160;49.500;7.772;2023-03-20T00:16:50;8.00;99.90
13794;DHT22;31160;49.500;7.772;2023-03-20T00:19:26;8.00;99.90
13794;DHT22;31160;49.500;7.772;2023-03-20T00:21:54;8.00;99.90
13794;DHT22;31160;49.500;7.772;2023-03-20T00:24:22;8.00;99.90
13794;DHT22;31160;49.500;7.772;2023-03-20T00:26:50;8.00;99.90
13794;DHT22;31160;49.500;7.772;2023-03-20T00:29:24;8.00;99.90
13794;DHT22;31160;49.500;7.772;2023-03-20T00:31:52;8.10;99.90
13794;DHT22;31160;49.500;7.772;2023-03-20T00:34:22;8.10;99.90
13794;DHT22;31160;49.500;7.772;2023-03-20T00:36:51;8.00;99.90
13794;DHT22;31160;49.500;7.772;2023-03-20T00:39:19;8.10;99.90
13794;DHT22;31160;49.500;7.772;2023-03-20T00:41:54;8.20;99.90
13794;DHT22;31160;49.500;7.772;2023-03-20T00:44:36;8.10;99.90
13794;DHT22;31160;49.500;7.772;2023-03-20T00:47:15;8.20;99.90
13794;DHT22;31160;49.500;7.772;2023-03-20T00:49:43;8.20;99.90
13794;DHT22;31160;49.500;7.772;2023-03-20T00:52:13;8.30;99.90
13794;DHT22;31160;49.500;7.772;2023-03-20T00:54:40;8.30;99.90
13794;DHT22;31160;49.500;7.772;2023-03-20T00:57:12;8.40;99.90
13794;DHT22;31160;49.500;7.772;2023-03-20T01:00:00;8.40;99.90
13794;DHT22;31160;49.500;7.772;2023-03-20T01:02:28;8.40;99.90
13794;DHT22;31160;49.500;7.772;2023-03-20T01:04:56;8.40;99.90
13794;DHT22;31160;49.500;7.772;2023-03-20T01:07:24;8.40;99.90
13794;DHT22;31160;49.500;7.772;2023-03-20T01:09:52;8.40;99.90
13794;DHT22;31160;49.500;7.772;2023-03-20T01:12:18;8.50;99.90
13794;DHT22;31160;49.500;7.772;2023-03-20T01:14:54;8.50;99.90
13794;DHT22;31160;49.500;7.772;2023-03-20T01:17:24;8.50;99.90
13794;DHT22;31160;49.500;7.772;2023-03-20T01:19:51;8.50;99.90
13794;DHT22;31160;49.500;7.772;2023-03-20T01:22:18;8.50;99.90
13794;DHT22;31160;49.500;7.772;2023-03-20T01:24:45;8.60;99.90
13794;DHT22;31160;49.500;7.772;2023-03-20T01:27:15;8.60;99.90
13794;DHT22;31160;49.500;7.772;2023-03-20T01:29:42;8.60;99.90
13794;DHT22;31160;49.500;7.772;2023-03-20T01:32:15;8.70;99.90
13794;DHT22;31160;49.500;7.772;2023-03-20T01:34:45;8.70;99.90
13794;DHT22;31160;49.500;7.772;2023-03-20T01:37:25;8.60;99.90
13794;DHT22;31160;49.500;7.772;2023-03-20T01:39:55;8.70;99.90
13794;DHT22;31160;49.500;7.772;2023-03-20T01:42:23;8.60;99.90
13794;DHT22;31160;49.500;7.772;2023-03-20T01:44:50;8.60;99.90
13794;DHT22;31160;49.500;7.772;2023-03-20T01:47:20;8.60;99.90
13794;DHT22;31160;49.500;7.772;2023-03-20T01:50:17;8.60;99.90
13794;DHT22;31160;49.500;7.772;2023-03-20T01:52:47;8.60;99.90
13794;DHT22;31160;49.500;7.772;2023-03-20T01:55:16;8.60;99.90
13794;DHT22;31160;49.500;7.772;2023-03-20T01:57:51;8.50;99.90
13794;DHT22;31160;49.500;7.772;2023-03-20T02:00:20;8.50;99.90
13794;DHT22;31160;49.500;7.772;2023-03-20T02:02:47;8.50;99.90
13794;DHT22;31160;49.500;7.772;2023-03-20T02:05:35;8.60;99.90
13794;DHT22;31160;49.500;7.772;2023-03-20T02:08:27;8.70;99.90
13794;DHT22;31160;49.500;7.772;2023-03-20T02:10:59;8.70;99.90
13794;DHT22;31160;49.500;7.772;2023-03-20T02:13:30;8.70;99.90
13794;DHT22;31160;49.500;7.772;2023-03-20T02:16:04;8.70;99.90
13794;DHT22;31160;49.500;7.772;2023-03-20T02:18:56;8.70;99.90
13794;DHT22;31160;49.500;7.772;2023-03-20T02:35:53;8.90;99.90
13794;DHT22;31160;49.500;7.772;2023-03-20T02:41:26;8.90;99.90
13794;DHT22;31160;49.500;7.772;2023-03-20T02:54:53;9.00;99.90
13794;DHT22;31160;49.500;7.772;2023-03-20T03:03:10;9.10;99.90
13794;DHT22;31160;49.500;7.772;2023-03-20T03:05:57;9.10;99.90
13794;DHT22;31160;49.500;7.772;2023-03-20T03:08:29;9.10;99.90
13794;DHT22;31160;49.500;7.772;2023-03-20T03:11:02;9.10;99.90
13794;DHT22;31160;49.500;7.772;2023-03-20T03:13:32;9.10;99.90
13794;DHT22;31160;49.500;7.772;2023-03-20T03:16:26;9.10;99.90
13794;DHT22;31160;49.500;7.772;2023-03-20T03:19:09;9.10;99.90
13794;DHT22;31160;49.500;7.772;2023-03-20T03:21:39;9.10;99.90
13794;DHT22;31160;49.500;7.772;2023-03-20T03:27:12;9.20;99.90
13794;DHT22;31160;49.500;7.772;2023-03-20T03:29:41;9.10;99.90
13794;DHT22;31160;49.500;7.772;2023-03-20T03:32:34;9.20;99.90
13794;DHT22;31160;49.500;7.772;2023-03-20T03:35:03;9.20;99.90
13794;DHT22;31160;49.500;7.772;2023-03-20T03:38:00;9.20;99.90
13794;DHT22;31160;49.500;7.772;2023-03-20T03:43:46;9.20;99.90
13794;DHT22;31160;49.500;7.772;2023-03-20T03:46:24;9.20;99.90
13794;DHT22;31160;49.500;7.772;2023-03-20T03:48:54;9.20;99.90
13794;DHT22;31160;49.500;7.772;2023-03-20T03:51:24;9.20;99.90
13794;DHT22;31160;49.500;7.772;2023-03-20T03:54:10;9.30;99.90
13794;DHT22;31160;49.500;7.772;2023-03-20T03:56:40;9.30;99.90
13794;DHT22;31160;49.500;7.772;2023-03-20T03:59:13;9.30;99.90
13794;DHT22;31160;49.500;7.772;2023-03-20T04:01:41;9.40;99.90
13794;DHT22;31160;49.500;7.772;2023-03-20T04:04:12;9.30;99.90
13794;DHT22;31160;49.500;7.772;2023-03-20T04:06:40;9.40;99.90
13794;DHT22;31160;49.500;7.772;2023-03-20T04:09:08;9.40;99.90
13794;DHT22;31160;49.500;7.772;2023-03-20T04:11:35;9.40;99.90
13794;DHT22;31160;49.500;7.772;2023-03-20T04:14:02;9.40;99.90
13794;DHT22;31160;49.500;7.772;2023-03-20T04:16:29;9.50;99.90
13794;DHT22;31160;49.500;7.772;2023-03-20T04:18:56;9.50;99.90
13794;DHT22;31160;49.500;7.772;2023-03-20T04:21:24;9.50;99.90
13794;DHT22;31160;49.500;7.772;2023-03-20T04:23:51;9.50;99.90
13794;DHT22;31160;49.500;7.772;2023-03-20T04:26:20;9.50;99.90
13794;DHT22;31160;49.500;7.772;2023-03-20T04:28:48;9.60;99.90
13794;DHT22;31160;49.500;7.772;2023-03-20T04:31:36;9.50;99.90
13794;DHT22;31160;49.500;7.772;2023-03-20T04:34:10;9.50;99.90
13794;DHT22;31160;49.500;7.772;2023-03-20T04:36:56;9.50;99.90
13794;DHT22;31160;49.500;7.772;2023-03-20T04:39:32;9.50;99.90
13794;DHT22;31160;49.500;7.772;2023-03-20T04:42:00;9.60;99.90
13794;DHT22;31160;49.500;7.772;2023-03-20T04:44:27;9.60;99.90
13794;DHT22;31160;49.500;7.772;2023-03-20T04:46:54;9.60;99.90
13794;DHT22;31160;49.500;7.772;2023-03-20T04:49:21;9.50;99.90
13794;DHT22;31160;49.500;7.772;2023-03-20T04:51:48;9.50;99.90
13794;DHT22;31160;49.500;7.772;2023-03-20T04:54:23;9.60;99.90
13794;DHT22;31160;49.500;7.772;2023-03-20T04:56:50;9.60;99.90
13794;DHT22;31160;49.500;7.772;2023-03-20T04:59:19;9.60;99.90
13794;DHT22;31160;49.500;7.772;2023-03-20T05:01:46;9.60;99.90
13794;DHT22;31160;49.500;7.772;2023-03-20T05:04:13;9.60;99.90
13794;DHT22;31160;49.500;7.772;2023-03-20T05:06:40;9.60;99.90
13794;DHT22;31160;49.500;7.772;2023-03-20T05:09:07;9.60;99.90
13794;DHT22;31160;49.500;7.772;2023-03-20T05:11:35;9.60;99.90
13794;DHT22;31160;49.500;7.772;2023-03-20T05:14:08;9.60;99.90
13794;DHT22;31160;49.500;7.772;2023-03-20T05:16:43;9.70;99.90
13794;DHT22;31160;49.500;7.772;2023-03-20T05:19:22;9.70;99.90
13794;DHT22;31160;49.500;7.772;2023-03-20T05:22:01;9.60;99.90
13794;DHT22;31160;49.500;7.772;2023-03-20T05:24:57;9.60;99.90
13794;DHT22;31160;49.500;7.772;2023-03-20T05:27:42;9.70;99.90
13794;DHT22;31160;49.500;7.772;2023-03-20T05:30:27;9.70;99.90
13794;DHT22;31160;49.500;7.772;2023-03-20T05:33:27;9.70;99.90
13794;DHT22;31160;49.500;7.772;2023-03-20T05:36:17;9.70;99.90
13794;DHT22;31160;49.500;7.772;2023-03-20T05:39:07;9.70;99.90
13794;DHT22;31160;49.500;7.772;2023-03-20T05:42:09;9.80;99.90
13794;DHT22;31160;49.500;7.772;2023-03-20T05:44:45;9.80;99.90
13794;DHT22;31160;49.500;7.772;2023-03-20T05:47:38;9.80;99.90
13794;DHT22;31160;49.500;7.772;2023-03-20T05:50:31;9.80;99.90
13794;DHT22;31160;49.500;7.772;2023-03-20T05:53:11;10.00;99.90
13794;DHT22;31160;49.500;7.772;2023-03-20T05:55:56;9.90;99.90
13794;DHT22;31160;49.500;7.772;2023-03-20T05:58:47;9.70;99.90
13794;DHT22;31160;49.500;7.772;2023-03-20T06:01:14;9.70;99.90
13794;DHT22;31160;49.500;7.772;2023-03-20T06:03:57;9.60;99.90
13794;DHT22;31160;49.500;7.772;2023-03-20T06:06:47;9.40;99.90
13794;DHT22;31160;49.500;7.772;2023-03-20T06:09:13;9.30;99.90
13794;DHT22;31160;49.500;7.772;2023-03-20T06:11:41;9.50;99.90
13794;DHT22;31160;49.500;7.772;2023-03-20T06:14:09;9.50;99.90
13794;DHT22;31160;49.500;7.772;2023-03-20T06:16:39;9.40;99.90
13794;DHT22;31160;49.500;7.772;2023-03-20T06:19:06;9.30;99.90
13794;DHT22;31160;49.500;7.772;2023-03-20T06:21:33;9.40;99.90
13794;DHT22;31160;49.500;7.772;2023-03-20T06:23:59;9.50;99.90
13794;DHT22;31160;49.500;7.772;2023-03-20T06:26:27;9.50;99.90
13794;DHT22;31160;49.500;7.772;2023-03-20T06:29:04;9.50;99.90
13794;DHT22;31160;49.500;7.772;2023-03-20T06:31:32;9.60;99.90
13794;DHT22;31160;49.500;7.772;2023-03-20T06:34:01;9.60;99.90
13794;DHT22;31160;49.500;7.772;2023-03-20T06:36:30;9.70;99.90
13794;DHT22;31160;49.500;7.772;2023-03-20T06:39:04;9.70;99.90
13794;DHT22;31160;49.500;7.772;2023-03-20T06:41:31;9.70;99.90
13794;DHT22;31160;49.500;7.772;2023-03-20T06:44:04;9.70;99.90
13794;DHT22;31160;49.500;7.772;2023-03-20T06:46:51;9.60;99.90
13794;DHT22;31160;49.500;7.772;2023-03-20T06:49:18;9.70;99.90
13794;DHT22;31160;49.500;7.772;2023-03-20T06:51:46;9.70;99.90
13794;DHT22;31160;49.500;7.772;2023-03-20T06:54:21;9.80;99.90
13794;DHT22;31160;49.500;7.772;2023-03-20T06:56:49;9.70;99.90
13794;DHT22;31160;49.500;7.772;2023-03-20T06:59:16;9.60;99.90
13794;DHT22;31160;49.500;7.772;2023-03-20T07:01:44;9.70;99.90
13794;DHT22;31160;49.500;7.772;2023-03-20T07:04:11;9.60;99.90
13794;DHT22;31160;49.500;7.772;2023-03-20T07:06:45;9.50;99.90
13794;DHT22;31160;49.500;7.772;2023-03-20T07:09:12;9.60;99.90
13794;DHT22;31160;49.500;7.772;2023-03-20T07:11:39;9.50;99.90
13794;DHT22;31160;49.500;7.772;2023-03-20T07:14:07;9.60;99.90
13794;DHT22;31160;49.500;7.772;2023-03-20T07:16:52;9.50;99.90
13794;DHT22;31160;49.500;7.772;2023-03-20T07:19:19;9.60;99.90
13794;DHT22;31160;49.500;7.772;2023-03-20T07:21:52;9.60;99.90
13794;DHT22;31160;49.500;7.772;2023-03-20T07:24:21;9.70;99.90
13794;DHT22;31160;49.500;7.772;2023-03-20T07:26:48;9.60;99.90
13794;DHT22;31160;49.500;7.772;2023-03-20T07:29:14;9.60;99.90
13794;DHT22;31160;49.500;7.772;2023-03-20T07:31:42;9.70;99.90
13794;DHT22;31160;49.500;7.772;2023-03-20T07:34:13;9.70;99.90
13794;DHT22;31160;49.500;7.772;2023-03-20T07:36:40;9.80;99.90
13794;DHT22;31160;49.500;7.772;2023-03-20T07:39:09;9.90;99.90
13794;DHT22;31160;49.500;7.772;2023-03-20T07:41:38;10.10;99.90
13794;DHT22;31160;49.500;7.772;2023-03-20T07:44:08;10.00;99.90
13794;DHT22;31160;49.500;7.772;2023-03-20T07:46:49;9.90;99.90
13794;DHT22;31160;49.500;7.772;2023-03-20T07:49:16;9.70;99.90
13794;DHT22;31160;49.500;7.772;2023-03-20T07:51:46;9.80;99.90
13794;DHT22;31160;49.500;7.772;2023-03-20T07:54:13;9.80;99.90
13794;DHT22;31160;49.500;7.772;2023-03-20T07:56:41;9.90;99.90
13794;DHT22;31160;49.500;7.772;2023-03-20T07:59:08;9.70;99.90
13794;DHT22;31160;49.500;7.772;2023-03-20T08:01:35;9.80;99.90
13794;DHT22;31160;49.500;7.772;2023-03-20T08:04:02;9.90;99.90
13794;DHT22;31160;49.500;7.772;2023-03-20T08:06:29;9.90;99.90
13794;DHT22;31160;49.500;7.772;2023-03-20T08:08:56;9.90;99.90
13794;DHT22;31160;49.500;7.772;2023-03-20T08:11:23;9.80;99.90
13794;DHT22;31160;49.500;7.772;2023-03-20T08:13:50;10.10;99.90
13794;DHT22;31160;49.500;7.772;2023-03-20T08:16:16;10.20;99.90
13794;DHT22;31160;49.500;7.772;2023-03-20T08:18:43;10.40;99.90
13794;DHT22;31160;49.500;7.772;2023-03-20T08:21:10;10.50;99.90
13794;DHT22;31160;49.500;7.772;2023-03-20T08:23:38;10.70;99.90
13794;DHT22;31160;49.500;7.772;2023-03-20T08:26:05;10.60;99.90
13794;DHT22;31160;49.500;7.772;2023-03-20T08:28:32;10.70;99.90
13794;DHT22;31160;49.500;7.772;2023-03-20T08:31:13;10.80;99.90
13794;DHT22;31160;49.500;7.772;2023-03-20T08:33:40;10.90;99.90
13794;DHT22;31160;49.500;7.772;2023-03-20T08:36:07;11.00;99.90
13794;DHT22;31160;49.500;7.772;2023-03-20T08:38:34;11.10;99.90
13794;DHT22;31160;49.500;7.772;2023-03-20T08:41:01;11.10;99.90
13794;DHT22;31160;49.500;7.772;2023-03-20T08:43:28;10.90;99.90
13794;DHT22;31160;49.500;7.772;2023-03-20T08:45:55;11.10;99.90
13794;DHT22;31160;49.500;7.772;2023-03-20T08:48:22;11.10;99.90
13794;DHT22;31160;49.500;7.772;2023-03-20T08:50:49;11.20;99.90
13794;DHT22;31160;49.500;7.772;2023-03-20T08:53:15;11.20;99.90
13794;DHT22;31160;49.500;7.772;2023-03-20T08:55:50;11.20;99.90
13794;DHT22;31160;49.500;7.772;2023-03-20T08:58:18;10.90;99.90
13794;DHT22;31160;49.500;7.772;2023-03-20T09:00:44;11.00;99.90
13794;DHT22;31160;49.500;7.772;2023-03-20T09:03:16;11.00;99.90
13794;DHT22;31160;49.500;7.772;2023-03-20T09:05:45;11.10;99.90
13794;DHT22;31160;49.500;7.772;2023-03-20T09:08:12;10.90;99.90
13794;DHT22;31160;49.500;7.772;2023-03-20T09:10:40;11.30;99.90
13794;DHT22;31160;49.500;7.772;2023-03-20T09:13:07;11.70;99.90
13794;DHT22;31160;49.500;7.772;2023-03-20T09:15:52;12.10;99.90
13794;DHT22;31160;49.500;7.772;2023-03-20T09:18:19;12.40;99.90
13794;DHT22;31160;49.500;7.772;2023-03-20T09:20:47;12.80;99.90
13794;DHT22;31160;49.500;7.772;2023-03-20T09:23:14;13.20;99.90
13794;DHT22;31160;49.500;7.772;2023-03-20T09:25:41;13.40;99.90
13794;DHT22;31160;49.500;7.772;2023-03-20T09:28:08;13.40;99.90
13794;DHT22;31160;49.500;7.772;2023-03-20T09:30:35;13.30;99.90
13794;DHT22;31160;49.500;7.772;2023-03-20T09:33:03;13.40;99.90
13794;DHT22;31160;49.500;7.772;2023-03-20T09:35:30;13.20;99.90
13794;DHT22;31160;49.500;7.772;2023-03-20T09:37:56;13.20;99.90
13794;DHT22;31160;49.500;7.772;2023-03-20T09:40:28;13.20;99.90
13794;DHT22;31160;49.500;7.772;2023-03-20T09:43:21;12.90;99.90
13794;DHT22;31160;49.500;7.772;2023-03-20T09:49:11;13.00;99.90
13794;DHT22;31160;49.500;7.772;2023-03-20T09:51:47;12.80;99.90
13794;DHT22;31160;49.500;7.772;2023-03-20T09:54:35;12.50;99.90
13794;DHT22;31160;49.500;7.772;2023-03-20T09:57:31;12.50;99.90
13794;DHT22;31160;49.500;7.772;2023-03-20T10:00:05;12.30;99.90
13794;DHT22;31160;49.500;7.772;2023-03-20T10:02:51;12.60;99.90
13794;DHT22;31160;49.500;7.772;2023-03-20T10:07:57;13.10;99.90
13794;DHT22;31160;49.500;7.772;2023-03-20T10:10:38;13.10;99.90
13794;DHT22;31160;49.500;7.772;2023-03-20T10:13:42;13.20;99.90
13794;DHT22;31160;49.500;7.772;2023-03-20T10:19:16;13.30;99.90
13794;DHT22;31160;49.500;7.772;2023-03-20T10:21:47;13.60;99.90
13794;DHT22;31160;49.500;7.772;2023-03-20T10:24:28;13.40;99.90
13794;DHT22;31160;49.500;7.772;2023-03-20T10:26:59;13.30;99.90
13794;DHT22;31160;49.500;7.772;2023-03-20T10:37:51;13.90;99.90
13794;DHT22;31160;49.500;7.772;2023-03-20T10:42:56;14.10;99.90
13794;DHT22;31160;49.500;7.772;2023-03-20T10:45:46;14.00;99.90
13794;DHT22;31160;49.500;7.772;2023-03-20T10:50:51;13.90;99.90
13794;DHT22;31160;49.500;7.772;2023-03-20T10:53:27;13.90;99.90
13794;DHT22;31160;49.500;7.772;2023-03-20T10:55:58;14.10;99.90
13794;DHT22;31160;49.500;7.772;2023-03-20T10:58:28;14.40;99.90
13794;DHT22;31160;49.500;7.772;2023-03-20T11:00:57;14.40;99.90
13794;DHT22;31160;49.500;7.772;2023-03-20T11:03:26;14.10;99.90
13794;DHT22;31160;49.500;7.772;2023-03-20T11:06:00;14.30;99.90
13794;DHT22;31160;49.500;7.772;2023-03-20T11:08:41;14.40;99.90
13794;DHT22;31160;49.500;7.772;2023-03-20T11:11:08;14.20;99.90
13794;DHT22;31160;49.500;7.772;2023-03-20T11:13:41;14.40;99.90
13794;DHT22;31160;49.500;7.772;2023-03-20T11:16:23;14.20;99.90
13794;DHT22;31160;49.500;7.772;2023-03-20T11:18:52;14.50;98.80
13794;DHT22;31160;49.500;7.772;2023-03-20T11:21:27;14.50;98.50
13794;DHT22;31160;49.500;7.772;2023-03-20T11:23:56;14.70;96.60
13794;DHT22;31160;49.500;7.772;2023-03-20T11:26:31;14.80;96.70
13794;DHT22;31160;49.500;7.772;2023-03-20T11:28:59;14.80;95.90
13794;DHT22;31160;49.500;7.772;2023-03-20T11:31:30;14.80;95.20
13794;DHT22;31160;49.500;7.772;2023-03-20T11:36:33;14.80;94.60
13794;DHT22;31160;49.500;7.772;2023-03-20T11:39:13;14.80;95.30
13794;DHT22;31160;49.500;7.772;2023-03-20T11:46:55;14.60;94.50
13794;DHT22;31160;49.500;7.772;2023-03-20T11:49:24;14.80;94.90
13794;DHT22;31160;49.500;7.772;2023-03-20T11:51:55;14.90;94.90
13794;DHT22;31160;49.500;7.772;2023-03-20T11:54:25;15.00;94.80
13794;DHT22;31160;49.500;7.772;2023-03-20T11:56:55;15.00;95.00
13794;DHT22;31160;49.500;7.772;2023-03-20T11:59:28;15.00;95.50
13794;DHT22;31160;49.500;7.772;2023-03-20T12:01:57;15.00;95.60
13794;DHT22;31160;49.500;7.772;2023-03-20T12:04:33;14.90;95.40
13794;DHT22;31160;49.500;7.772;2023-03-20T12:07:19;14.80;95.30
13794;DHT22;31160;49.500;7.772;2023-03-20T12:10:02;14.60;95.30
13794;DHT22;31160;49.500;7.772;2023-03-20T12:12:59;14.50;95.10
13794;DHT22;31160;49.500;7.772;2023-03-20T12:15:43;14.10;94.70
13794;DHT22;31160;49.500;7.772;2023-03-20T12:23:45;14.40;93.40
13794;DHT22;31160;49.500;7.772;2023-03-20T12:26:38;14.20;92.50
13794;DHT22;31160;49.500;7.772;2023-03-20T12:29:31;14.30;91.50
13794;DHT22;31160;49.500;7.772;2023-03-20T12:32:05;13.80;92.40
13794;DHT22;31160;49.500;7.772;2023-03-20T12:35:19;13.90;92.60
13794;DHT22;31160;49.500;7.772;2023-03-20T12:37:46;13.90;92.90
13794;DHT22;31160;49.500;7.772;2023-03-20T12:40:16;13.90;93.70
13794;DHT22;31160;49.500;7.772;2023-03-20T12:43:08;14.00;93.50
13794;DHT22;31160;49.500;7.772;2023-03-20T12:45:39;14.40;93.40
13794;DHT22;31160;49.500;7.772;2023-03-20T12:51:08;14.50;93.40
13794;DHT22;31160;49.500;7.772;2023-03-20T12:59:41;14.90;92.60
13794;DHT22;31160;49.500;7.772;2023-03-20T13:02:33;15.00;92.60
13794;DHT22;31160;49.500;7.772;2023-03-20T13:11:04;14.30;92.10
13794;DHT22;31160;49.500;7.772;2023-03-20T13:13:51;14.40;92.30
13794;DHT22;31160;49.500;7.772;2023-03-20T13:19:18;14.40;92.30
13794;DHT22;31160;49.500;7.772;2023-03-20T13:21:57;14.40;92.20
13794;DHT22;31160;49.500;7.772;2023-03-20T13:24:47;14.30;92.80
13794;DHT22;31160;49.500;7.772;2023-03-20T13:30:27;14.90;93.00
13794;DHT22;31160;49.500;7.772;2023-03-20T13:35:55;15.00;91.80
13794;DHT22;31160;49.500;7.772;2023-03-20T13:38:31;14.80;91.70
13794;DHT22;31160;49.500;7.772;2023-03-20T13:41:02;14.70;92.00
13794;DHT22;31160;49.500;7.772;2023-03-20T13:43:37;14.60;91.60
13794;DHT22;31160;49.500;7.772;2023-03-20T13:46:21;14.50;91.60
13794;DHT22;31160;49.500;7.772;2023-03-20T13:48:50;14.50;91.20
13794;DHT22;31160;49.500;7.772;2023-03-20T13:56:58;14.70;90.70
13794;DHT22;31160;49.500;7.772;2023-03-20T14:00:37;14.30;90.90
13794;DHT22;31160;49.500;7.772;2023-03-20T14:05:37;14.70;91.20
13794;DHT22;31160;49.500;7.772;2023-03-20T14:08:33;14.80;91.00
13794;DHT22;31160;49.500;7.772;2023-03-20T14:16:33;14.60;91.00
13794;DHT22;31160;49.500;7.772;2023-03-20T14:19:23;14.60;90.60
13794;DHT22;31160;49.500;7.772;2023-03-20T14:21:54;14.50;90.50
13794;DHT22;31160;49.500;7.772;2023-03-20T14:24:23;14.50;90.90
13794;DHT22;31160;49.500;7.772;2023-03-20T14:26:55;14.30;91.10
13794;DHT22;31160;49.500;7.772;2023-03-20T14:34:49;14.00;90.60
13794;DHT22;31160;49.500;7.772;2023-03-20T14:37:37;13.90;91.10
13794;DHT22;31160;49.500;7.772;2023-03-20T14:40:15;13.90;90.60
13794;DHT22;31160;49.500;7.772;2023-03-20T14:42:51;14.00;90.10
13794;DHT22;31160;49.500;7.772;2023-03-20T14:48:16;13.60;89.90
13794;DHT22;31160;49.500;7.772;2023-03-20T14:53:32;13.60;89.60
13794;DHT22;31160;49.500;7.772;2023-03-20T14:56:06;13.20;90.40
13794;DHT22;31160;49.500;7.772;2023-03-20T15:01:16;13.50;90.30
13794;DHT22;31160;49.500;7.772;2023-03-20T15:04:20;13.70;90.00
13794;DHT22;31160;49.500;7.772;2023-03-20T15:06:53;13.70;90.00
13794;DHT22;31160;49.500;7.772;2023-03-20T15:09:24;13.60;90.00
13794;DHT22;31160;49.500;7.772;2023-03-20T15:11:52;13.40;89.80
13794;DHT22;31160;49.500;7.772;2023-03-20T15:14:25;13.20;90.40
13794;DHT22;31160;49.500;7.772;2023-03-20T15:16:59;13.30;90.40
13794;DHT22;31160;49.500;7.772;2023-03-20T15:19:25;13.20;90.60
13794;DHT22;31160;49.500;7.772;2023-03-20T15:21:53;13.10;90.60
13794;DHT22;31160;49.500;7.772;2023-03-20T15:26:59;12.90;91.60
13794;DHT22;31160;49.500;7.772;2023-03-20T15:29:28;12.90;91.90
13794;DHT22;31160;49.500;7.772;2023-03-20T15:31:58;12.80;92.10
13794;DHT22;31160;49.500;7.772;2023-03-20T15:34:40;12.80;92.50
13794;DHT22;31160;49.500;7.772;2023-03-20T15:37:16;12.90;92.50
13794;DHT22;31160;49.500;7.772;2023-03-20T15:39:53;12.90;92.50
13794;DHT22;31160;49.500;7.772;2023-03-20T15:42:25;12.80;92.90
13794;DHT22;31160;49.500;7.772;2023-03-20T15:44:54;12.90;93.00
13794;DHT22;31160;49.500;7.772;2023-03-20T15:47:22;12.90;93.10
13794;DHT22;31160;49.500;7.772;2023-03-20T15:49:51;12.70;93.00
13794;DHT22;31160;49.500;7.772;2023-03-20T15:52:44;12.70;93.20
13794;DHT22;31160;49.500;7.772;2023-03-20T15:55:20;12.70;93.20
13794;DHT22;31160;49.500;7.772;2023-03-20T15:57:49;12.60;93.50
13794;DHT22;31160;49.500;7.772;2023-03-20T16:02:50;12.50;94.30
13794;DHT22;31160;49.500;7.772;2023-03-20T16:05:18;12.50;94.20
13794;DHT22;31160;49.500;7.772;2023-03-20T16:07:46;12.30;93.80
13794;DHT22;31160;49.500;7.772;2023-03-20T16:10:22;12.20;94.30
13794;DHT22;31160;49.500;7.772;2023-03-20T16:12:51;12.30;94.00
13794;DHT22;31160;49.500;7.772;2023-03-20T16:15:23;12.30;93.70
13794;DHT22;31160;49.500;7.772;2023-03-20T16:17:53;12.30;94.10
13794;DHT22;31160;49.500;7.772;2023-03-20T16:20:23;12.30;94.40
13794;DHT22;31160;49.500;7.772;2023-03-20T16:22:56;12.00;95.10
13794;DHT22;31160;49.500;7.772;2023-03-20T16:25:25;12.00;95.10
13794;DHT22;31160;49.500;7.772;2023-03-20T16:27:52;12.00;95.60
13794;DHT22;31160;49.500;7.772;2023-03-20T16:30:29;12.10;95.90
13794;DHT22;31160;49.500;7.772;2023-03-20T16:33:05;12.20;96.00
13794;DHT22;31160;49.500;7.772;2023-03-20T16:35:42;12.10;95.60
13794;DHT22;31160;49.500;7.772;2023-03-20T16:38:22;12.00;96.30
13794;DHT22;31160;49.500;7.772;2023-03-20T16:40:53;11.80;96.60
13794;DHT22;31160;49.500;7.772;2023-03-20T16:43:31;11.90;96.60
13794;DHT22;31160;49.500;7.772;2023-03-20T16:46:03;11.80;96.80
13794;DHT22;31160;49.500;7.772;2023-03-20T16:48:32;11.60;97.10
13794;DHT22;31160;49.500;7.772;2023-03-20T16:51:22;11.70;96.90
13794;DHT22;31160;49.500;7.772;2023-03-20T16:53:59;11.60;97.40
13794;DHT22;31160;49.500;7.772;2023-03-20T16:56:35;11.70;97.90
13794;DHT22;31160;49.500;7.772;2023-03-20T16:59:17;11.70;97.80
13794;DHT22;31160;49.500;7.772;2023-03-20T17:01:46;11.80;97.50
13794;DHT22;31160;49.500;7.772;2023-03-20T17:04:19;11.60;98.10
13794;DHT22;31160;49.500;7.772;2023-03-20T17:06:58;11.60;99.90
13794;DHT22;31160;49.500;7.772;2023-03-20T17:09:27;11.50;99.90
13794;DHT22;31160;49.500;7.772;2023-03-20T17:12:12;11.20;99.90
13794;DHT22;31160;49.500;7.772;2023-03-20T17:14:39;11.20;99.90
13794;DHT22;31160;49.500;7.772;2023-03-20T17:17:12;11.20;99.90
13794;DHT22;31160;49.500;7.772;2023-03-20T17:19:39;11.30;99.90
13794;DHT22;31160;49.500;7.772;2023-03-20T17:22:18;11.30;99.90
13794;DHT22;31160;49.500;7.772;2023-03-20T17:24:45;11.20;99.90
13794;DHT22;31160;49.500;7.772;2023-03-20T17:27:12;11.10;99.90
13794;DHT22;31160;49.500;7.772;2023-03-20T17:29:40;11.20;99.90
13794;DHT22;31160;49.500;7.772;2023-03-20T17:32:20;11.20;99.90
13794;DHT22;31160;49.500;7.772;2023-03-20T17:34:49;11.30;99.90
13794;DHT22;31160;49.500;7.772;2023-03-20T17:37:22;11.30;99.90
13794;DHT22;31160;49.500;7.772;2023-03-20T17:39:49;11.30;99.90
13794;DHT22;31160;49.500;7.772;2023-03-20T17:42:21;11.30;99.90
13794;DHT22;31160;49.500;7.772;2023-03-20T17:44:50;11.30;99.90
13794;DHT22;31160;49.500;7.772;2023-03-20T17:47:18;11.30;99.90
13794;DHT22;31160;49.500;7.772;2023-03-20T17:49:46;11.10;99.90
13794;DHT22;31160;49.500;7.772;2023-03-20T17:52:15;11.20;99.90
13794;DHT22;31160;49.500;7.772;2023-03-20T17:54:43;11.20;99.90
13794;DHT22;31160;49.500;7.772;2023-03-20T17:59:50;11.20;99.90
13794;DHT22;31160;49.500;7.772;2023-03-20T18:02:17;11.20;99.90
13794;DHT22;31160;49.500;7.772;2023-03-20T18:04:45;11.20;99.90
13794;DHT22;31160;49.500;7.772;2023-03-20T18:07:13;11.10;99.90
13794;DHT22;31160;49.500;7.772;2023-03-20T18:09:41;11.10;99.90
13794;DHT22;31160;49.500;7.772;2023-03-20T18:12:14;11.10;99.90
13794;DHT22;31160;49.500;7.772;2023-03-20T18:14:43;11.10;99.90
13794;DHT22;31160;49.500;7.772;2023-03-20T18:17:11;11.00;99.90
13794;DHT22;31160;49.500;7.772;2023-03-20T18:19:39;11.00;99.90
13794;DHT22;31160;49.500;7.772;2023-03-20T18:22:05;11.00;99.90
13794;DHT22;31160;49.500;7.772;2023-03-20T18:24:33;11.00;99.90
13794;DHT22;31160;49.500;7.772;2023-03-20T18:27:00;11.00;99.90
13794;DHT22;31160;49.500;7.772;2023-03-20T18:29:27;11.10;99.90
13794;DHT22;31160;49.500;7.772;2023-03-20T18:31:53;11.10;99.90